Time;durP1;ratioP1;P1;durP2;ratioP2;P2;SDS_P1;SDS_P2;PMS_P1;PMS_P2;Temp;Humidity;BMP_temperature;BMP_pressure;BME280_temperature;BME280_humidity;BME280_pressure;Samples;Min_cycle;Max_cycle;Signal;HPM_P1;HPM_P2
2022/09/01 00:00:49;;;;;;;8.57;6.63;;;;;;;;;;2007301;29;20521;-88
2022/09/01 00:01:51;;;;;;;13.32;8.00;;;;;;;;;;1999764;29;20034;-88
2022/09/01 00:02:52;;;;;;;13.52;7.68;;;;;;;;;;1999917;29;20038;-88
2022/09/01 00:03:55;;;;;;;12.82;7.03;;;;;;;;;;1992290;29;20095;-88
2022/09/01 00:04:57;;;;;;;14.25;7.10;;;;;;;;;;2000106;29;20124;-87
2022/09/01 00:05:57;;;;;;;10.10;7.07;;;;;;;;;;1999667;29;20041;-87
2022/09/01 00:06:58;;;;;;;9.80;6.72;;;;;;;;;;2000024;29;20442;-87
2022/09/01 00:07:59;;;;;;;12.30;7.35;;;;;;;;;;1999859;29;20061;-88
2022/09/01 00:09:03;;;;;;;9.98;6.68;;;;;;;;;;1999783;29;20349;-88
2022/09/01 00:10:07;;;;;;;11.18;7.50;;;;;;;;;;2000945;29;20029;-88
2022/09/01 00:11:07;;;;;;;11.20;7.32;;;;;;;;;;2001707;29;20552;-88
2022/09/01 00:12:08;;;;;;;11.88;6.75;;;;;;;;;;2009485;29;20356;-86
2022/09/01 00:13:09;;;;;;;9.70;7.00;;;;;;;;;;2009667;29;20503;-87
2022/09/01 00:14:10;;;;;;;9.40;6.53;;;;;;;;;;2008876;29;20121;-88
2022/09/01 00:15:12;;;;;;;12.05;7.32;;;;;;;;;;2008902;29;20029;-88
2022/09/01 00:16:15;;;;;;;10.63;7.25;;;;;;;;;;2001167;29;20026;-88
2022/09/01 00:17:15;;;;;;;9.68;6.25;;;;;;;;;;1993857;29;20026;-89
2022/09/01 00:18:16;;;;;;;10.25;6.72;;;;;;;;;;2001237;29;20029;-88
2022/09/01 00:19:16;;;;;;;10.00;6.65;;;;;;;;;;2001216;29;20034;-88
2022/09/01 00:20:17;;;;;;;12.43;7.00;;;;;;;;;;2001267;29;20108;-87
2022/09/01 00:21:21;;;;;;;10.88;6.85;;;;;;;;;;2001067;29;20093;-88
2022/09/01 00:22:22;;;;;;;11.57;7.15;;;;;;;;;;2001524;29;20048;-88
2022/09/01 00:23:22;;;;;;;10.60;7.10;;;;;;;;;;2001170;29;20501;-88
2022/09/01 00:24:24;;;;;;;10.23;7.55;;;;;;;;;;2001167;29;20118;-88
2022/09/01 00:25:26;;;;;;;9.55;6.22;;;;;;;;;;2001014;29;20524;-89
2022/09/01 00:26:27;;;;;;;11.55;6.03;;;;;;;;;;2001388;29;20029;-88
2022/09/01 00:27:28;;;;;;;10.30;6.85;;;;;;;;;;2009367;29;20519;-89
2022/09/01 00:28:28;;;;;;;9.70;6.20;;;;;;;;;;2009526;29;20217;-89
2022/09/01 00:29:28;;;;;;;9.40;6.20;;;;;;;;;;2001091;29;20033;-88
2022/09/01 00:30:29;;;;;;;7.35;5.95;;;;;;;;;;2001206;29;20034;-88
2022/09/01 00:31:31;;;;;;;10.68;6.95;;;;;;;;;;2009598;29;20469;-88
2022/09/01 00:32:31;;;;;;;6.50;5.75;;;;;;;;;;2009473;29;20055;-88
2022/09/01 00:33:33;;;;;;;10.73;6.63;;;;;;;;;;2000933;29;20045;-88
2022/09/01 00:34:33;;;;;;;10.50;5.97;;;;;;;;;;2001158;29;20041;-88
2022/09/01 00:35:34;;;;;;;10.18;6.43;;;;;;;;;;2009282;29;20034;-88
2022/09/01 00:36:35;;;;;;;11.07;6.50;;;;;;;;;;2009328;29;20033;-88
2022/09/01 00:37:35;;;;;;;8.25;6.28;;;;;;;;;;2009160;29;20033;-88
2022/09/01 00:38:36;;;;;;;9.93;6.05;;;;;;;;;;2000904;29;20139;-88
2022/09/01 00:39:36;;;;;;;9.40;6.35;;;;;;;;;;1993402;29;20134;-88
2022/09/01 00:40:37;;;;;;;8.18;6.47;;;;;;;;;;2001093;29;20038;-88
2022/09/01 00:41:43;;;;;;;9.23;6.18;;;;;;;;;;2009336;29;20044;-89
2022/09/01 00:42:45;;;;;;;9.55;6.38;;;;;;;;;;2011804;29;20098;-88
2022/09/01 00:43:49;;;;;;;8.18;6.10;;;;;;;;;;2009258;29;20096;-89
2022/09/01 00:44:49;;;;;;;12.57;6.60;;;;;;;;;;2000781;29;20097;-88
2022/09/01 00:45:51;;;;;;;11.02;6.80;;;;;;;;;;2000891;29;20503;-87
2022/09/01 00:46:54;;;;;;;10.63;6.68;;;;;;;;;;2009298;29;20033;-87
2022/09/01 00:47:54;;;;;;;16.75;6.90;;;;;;;;;;2009294;29;20029;-87
2022/09/01 00:49:11;;;;;;;9.52;6.07;;;;;;;;;;2009341;29;20442;-88
2022/09/01 00:50:15;;;;;;;9.30;6.30;;;;;;;;;;2009199;29;20060;-88
2022/09/01 00:51:16;;;;;;;9.82;6.38;;;;;;;;;;2000949;29;20030;-88
2022/09/01 00:52:40;;;;;;;11.77;6.40;;;;;;;;;;2000889;29;20026;-88
2022/09/01 00:53:42;;;;;;;8.77;6.50;;;;;;;;;;2008749;29;20025;-87
2022/09/01 00:54:48;;;;;;;11.43;6.22;;;;;;;;;;2009372;29;20067;-88
2022/09/01 00:55:48;;;;;;;9.60;6.80;;;;;;;;;;2009125;29;20203;-88
2022/09/01 00:56:49;;;;;;;8.68;6.57;;;;;;;;;;2009223;29;20078;-87
2022/09/01 00:57:50;;;;;;;10.98;6.95;;;;;;;;;;2000756;29;20073;-87
2022/09/01 00:58:51;;;;;;;10.73;7.03;;;;;;;;;;2000938;29;20179;-88
2022/09/01 00:59:56;;;;;;;12.93;6.68;;;;;;;;;;2001028;29;20042;-88
2022/09/01 01:00:57;;;;;;;10.82;6.47;;;;;;;;;;2008366;29;20052;-87
2022/09/01 01:01:58;;;;;;;9.43;6.47;;;;;;;;;;2008357;29;20045;-88
2022/09/01 01:02:58;;;;;;;11.40;5.88;;;;;;;;;;2009134;29;20037;-88
2022/09/01 01:04:00;;;;;;;9.40;5.93;;;;;;;;;;2009365;29;20033;-88
2022/09/01 01:05:02;;;;;;;12.50;6.82;;;;;;;;;;2000812;29;20117;-88
2022/09/01 01:06:07;;;;;;;10.60;6.35;;;;;;;;;;2000889;29;20371;-88
2022/09/01 01:07:09;;;;;;;10.50;6.97;;;;;;;;;;2001117;29;20482;-88
2022/09/01 01:08:10;;;;;;;10.75;6.28;;;;;;;;;;2001161;29;20044;-88
2022/09/01 01:09:11;;;;;;;12.52;7.10;;;;;;;;;;2009090;29;20021;-88
2022/09/01 01:10:14;;;;;;;7.60;6.72;;;;;;;;;;2008309;29;20037;-88
2022/09/01 01:11:16;;;;;;;8.05;6.28;;;;;;;;;;2008550;29;20029;-88
2022/09/01 01:12:17;;;;;;;9.10;6.40;;;;;;;;;;2009295;29;20021;-88
2022/09/01 01:13:19;;;;;;;12.90;7.43;;;;;;;;;;2009137;29;20077;-88
2022/09/01 01:14:20;;;;;;;10.07;7.25;;;;;;;;;;2000759;29;20062;-88
2022/09/01 01:15:20;;;;;;;10.63;6.93;;;;;;;;;;2000748;29;20537;-88
2022/09/01 01:16:23;;;;;;;9.55;6.97;;;;;;;;;;1977603;29;20062;-89
2022/09/01 01:17:24;;;;;;;11.43;6.63;;;;;;;;;;1993278;29;20030;-88
2022/09/01 01:18:24;;;;;;;8.25;6.45;;;;;;;;;;2000752;29;20112;-88
2022/09/01 01:23:04;;;;;;;11.00;7.43;;;;;;;;;;2009207;29;20076;-87
2022/09/01 01:24:28;;;;;;;13.85;8.25;;;;;;;;;;2000757;29;20029;-87
2022/09/01 01:25:33;;;;;;;12.35;7.40;;;;;;;;;;2000652;29;20030;-87
2022/09/01 01:26:33;;;;;;;10.50;7.40;;;;;;;;;;2001261;29;20124;-87
2022/09/01 01:27:41;;;;;;;10.00;7.43;;;;;;;;;;1895327;29;10242834;-87
2022/09/01 01:28:43;;;;;;;8.35;7.00;;;;;;;;;;2001750;29;20259;-88
2022/09/01 01:29:43;;;;;;;10.30;7.15;;;;;;;;;;2008860;29;20029;-88
2022/09/01 01:30:50;;;;;;;10.90;7.18;;;;;;;;;;2000531;29;20104;-88
2022/09/01 01:31:52;;;;;;;11.73;8.02;;;;;;;;;;2002068;29;20174;-86
2022/09/01 01:32:54;;;;;;;11.27;7.55;;;;;;;;;;2008947;29;20129;-88
2022/09/01 01:33:55;;;;;;;11.65;7.85;;;;;;;;;;2008831;29;20034;-88
2022/09/01 01:34:56;;;;;;;12.38;7.95;;;;;;;;;;2008899;29;20105;-88
2022/09/01 01:35:58;;;;;;;9.15;7.47;;;;;;;;;;2000601;29;20480;-87
2022/09/01 01:37:00;;;;;;;14.90;8.27;;;;;;;;;;2000766;29;20105;-87
2022/09/01 01:38:06;;;;;;;10.13;7.50;;;;;;;;;;2000542;29;20416;-87
2022/09/01 01:39:13;;;;;;;11.60;8.00;;;;;;;;;;2003968;29;20029;-87
2022/09/01 01:40:15;;;;;;;8.88;7.03;;;;;;;;;;2000405;29;20097;-87
2022/09/01 01:41:18;;;;;;;11.50;7.80;;;;;;;;;;2000935;29;20091;-88
2022/09/01 01:42:19;;;;;;;9.90;7.65;;;;;;;;;;2008765;29;20017;-87
2022/09/01 01:43:20;;;;;;;12.05;7.75;;;;;;;;;;2008750;29;20040;-87
2022/09/01 01:44:26;;;;;;;8.80;7.03;;;;;;;;;;2008930;29;20021;-88
2022/09/01 01:45:27;;;;;;;10.45;8.15;;;;;;;;;;2000466;29;20026;-88
2022/09/01 01:46:27;;;;;;;10.80;7.72;;;;;;;;;;2000659;29;20037;-88
2022/09/01 01:47:28;;;;;;;12.25;7.95;;;;;;;;;;2008712;29;20037;-88
2022/09/01 01:48:33;;;;;;;10.18;7.75;;;;;;;;;;2008067;29;20116;-87
2022/09/01 01:49:35;;;;;;;11.32;7.78;;;;;;;;;;2008098;29;20102;-86
2022/09/01 01:50:36;;;;;;;11.15;7.90;;;;;;;;;;2008766;29;20041;-89
2022/09/01 01:51:37;;;;;;;11.07;8.35;;;;;;;;;;2008833;29;20082;-88
2022/09/01 01:52:37;;;;;;;14.85;7.82;;;;;;;;;;2008651;29;20164;-88
2022/09/01 01:53:38;;;;;;;12.88;7.43;;;;;;;;;;2008965;29;20030;-88
2022/09/01 01:54:39;;;;;;;12.48;8.52;;;;;;;;;;2000286;29;20111;-89
2022/09/01 01:55:40;;;;;;;10.43;7.82;;;;;;;;;;2000322;29;20053;-88
2022/09/01 01:56:41;;;;;;;13.27;8.45;;;;;;;;;;2000552;29;20030;-89
2022/09/01 01:57:47;;;;;;;12.13;7.75;;;;;;;;;;2008964;29;20416;-87
2022/09/01 01:58:48;;;;;;;12.20;7.80;;;;;;;;;;2000496;29;20030;-88
2022/09/01 01:59:48;;;;;;;11.50;7.50;;;;;;;;;;2000876;29;20422;-87
2022/09/01 02:00:51;;;;;;;12.15;7.60;;;;;;;;;;2009359;29;20037;-89
2022/09/01 02:01:51;;;;;;;10.63;8.07;;;;;;;;;;2008972;29;20033;-88
2022/09/01 02:02:53;;;;;;;11.80;7.40;;;;;;;;;;1656950;29;10288363;-89
2022/09/01 02:03:55;;;;;;;10.45;7.25;;;;;;;;;;1993104;29;20030;-88
2022/09/01 02:04:55;;;;;;;10.52;7.40;;;;;;;;;;2000628;29;20481;-89
2022/09/01 02:05:55;;;;;;;11.32;6.95;;;;;;;;;;2008796;29;20021;-89
2022/09/01 02:06:56;;;;;;;12.57;7.10;;;;;;;;;;2008603;29;20029;-88
2022/09/01 02:08:04;;;;;;;12.35;7.35;;;;;;;;;;2008759;29;20022;-87
2022/09/01 02:09:05;;;;;;;10.52;7.35;;;;;;;;;;2000447;29;20113;-89
2022/09/01 02:10:06;;;;;;;10.32;7.90;;;;;;;;;;2000583;29;20026;-89
2022/09/01 02:11:07;;;;;;;9.40;7.20;;;;;;;;;;2008729;29;20033;-88
2022/09/01 02:12:08;;;;;;;9.73;7.07;;;;;;;;;;2008896;29;20025;-88
2022/09/01 02:13:15;;;;;;;8.70;6.78;;;;;;;;;;2008021;29;20078;-89
2022/09/01 02:14:19;;;;;;;10.50;7.97;;;;;;;;;;2010626;29;20501;-88
2022/09/01 02:15:19;;;;;;;8.65;7.53;;;;;;;;;;2008464;29;20033;-88
2022/09/01 02:16:20;;;;;;;11.02;7.30;;;;;;;;;;2000217;29;20026;-89
2022/09/01 02:17:21;;;;;;;10.90;7.47;;;;;;;;;;2000420;29;20177;-88
2022/09/01 02:18:26;;;;;;;9.32;7.18;;;;;;;;;;2008663;29;20035;-89
2022/09/01 02:19:27;;;;;;;13.02;8.10;;;;;;;;;;2008674;29;20088;-89
2022/09/01 02:20:28;;;;;;;11.00;7.68;;;;;;;;;;2008587;29;20037;-88
2022/09/01 02:21:29;;;;;;;13.13;8.13;;;;;;;;;;2000276;29;20573;-89
2022/09/01 02:22:29;;;;;;;10.15;7.95;;;;;;;;;;2000451;29;20033;-88
2022/09/01 02:23:29;;;;;;;11.98;8.20;;;;;;;;;;2000111;29;20124;-88
2022/09/01 02:24:31;;;;;;;12.30;8.57;;;;;;;;;;1992671;29;20545;-88
2022/09/01 02:25:31;;;;;;;12.48;8.10;;;;;;;;;;2000246;29;20101;-88
2022/09/01 02:26:38;;;;;;;10.90;8.85;;;;;;;;;;2000254;29;20033;-89
2022/09/01 02:27:38;;;;;;;14.13;8.90;;;;;;;;;;2001056;29;20057;-88
2022/09/01 02:28:44;;;;;;;11.75;8.52;;;;;;;;;;2000149;29;20030;-88
2022/09/01 02:29:44;;;;;;;14.05;9.23;;;;;;;;;;2000263;29;20435;-88
2022/09/01 02:30:48;;;;;;;13.70;8.93;;;;;;;;;;1992591;29;20104;-88
2022/09/01 02:31:52;;;;;;;16.30;9.48;;;;;;;;;;1666509;29;10002199;-88
2022/09/01 02:32:53;;;;;;;12.23;9.07;;;;;;;;;;2000050;29;20025;-87
2022/09/01 02:33:53;;;;;;;14.45;9.25;;;;;;;;;;2000253;29;20034;-87
2022/09/01 02:34:55;;;;;;;12.27;9.38;;;;;;;;;;2000127;29;20355;-87
2022/09/01 02:35:59;;;;;;;12.27;8.82;;;;;;;;;;2000266;29;20434;-87
2022/09/01 02:37:00;;;;;;;14.18;9.18;;;;;;;;;;2008437;29;20052;-87
2022/09/01 02:38:01;;;;;;;13.95;9.40;;;;;;;;;;2000071;29;20072;-88
2022/09/01 02:39:02;;;;;;;13.48;9.82;;;;;;;;;;2000095;29;20056;-87
2022/09/01 02:40:02;;;;;;;11.93;8.65;;;;;;;;;;2000165;29;20036;-87
2022/09/01 02:41:03;;;;;;;13.40;8.95;;;;;;;;;;2007783;29;20021;-87
2022/09/01 02:42:04;;;;;;;14.68;8.98;;;;;;;;;;2008509;29;20041;-87
2022/09/01 02:43:04;;;;;;;12.40;9.35;;;;;;;;;;2000149;29;20042;-87
2022/09/01 02:44:10;;;;;;;11.93;8.52;;;;;;;;;;2000243;29;20042;-87
2022/09/01 02:45:15;;;;;;;12.73;8.00;;;;;;;;;;2000064;29;20116;-87
2022/09/01 02:46:15;;;;;;;12.95;8.05;;;;;;;;;;1993019;29;20053;-87
2022/09/01 02:47:15;;;;;;;14.38;7.90;;;;;;;;;;2000038;29;20030;-88
2022/09/01 02:48:17;;;;;;;11.35;8.32;;;;;;;;;;2000084;29;20029;-87
2022/09/01 02:49:24;;;;;;;12.73;8.63;;;;;;;;;;1992537;29;20042;-87
2022/09/01 02:50:25;;;;;;;12.80;8.32;;;;;;;;;;1657805;29;10248877;-87
2022/09/01 02:51:26;;;;;;;16.92;9.35;;;;;;;;;;1992411;29;20037;-87
2022/09/01 02:52:28;;;;;;;15.57;8.90;;;;;;;;;;2000170;29;20465;-87
2022/09/01 02:53:30;;;;;;;11.45;8.88;;;;;;;;;;1999987;29;20398;-87
2022/09/01 02:54:31;;;;;;;13.35;9.00;;;;;;;;;;2000198;29;20030;-87
2022/09/01 02:55:32;;;;;;;11.02;8.32;;;;;;;;;;1999938;29;20109;-87
2022/09/01 02:56:32;;;;;;;12.30;8.38;;;;;;;;;;2000026;29;20026;-87
2022/09/01 02:57:33;;;;;;;13.50;8.82;;;;;;;;;;2007596;29;20053;-87
2022/09/01 02:58:39;;;;;;;13.82;8.45;;;;;;;;;;2007778;29;20052;-87
2022/09/01 02:59:41;;;;;;;16.10;9.70;;;;;;;;;;2008905;29;20332;-87
2022/09/01 03:00:42;;;;;;;11.38;8.07;;;;;;;;;;1999824;29;20133;-87
2022/09/01 03:01:46;;;;;;;12.90;8.80;;;;;;;;;;2000031;29;20102;-87
2022/09/01 03:02:51;;;;;;;11.70;8.38;;;;;;;;;;1660216;29;10176989;-87
2022/09/01 03:03:55;;;;;;;12.75;8.45;;;;;;;;;;1992953;29;20034;-87
2022/09/01 03:04:56;;;;;;;12.88;8.63;;;;;;;;;;2000557;29;20054;-87
2022/09/01 03:05:56;;;;;;;11.45;8.48;;;;;;;;;;1999972;29;20026;-87
2022/09/01 03:06:57;;;;;;;10.80;8.15;;;;;;;;;;1999946;29;20037;-87
2022/09/01 03:08:00;;;;;;;11.90;8.10;;;;;;;;;;1999963;29;20094;-87
2022/09/01 03:09:07;;;;;;;11.77;8.02;;;;;;;;;;2000363;29;20038;-87
2022/09/01 03:10:08;;;;;;;13.93;8.20;;;;;;;;;;1999973;29;20467;-87
2022/09/01 03:11:10;;;;;;;11.95;8.73;;;;;;;;;;2000041;29;20021;-87
2022/09/01 03:12:10;;;;;;;13.32;8.95;;;;;;;;;;2007599;29;20040;-87
2022/09/01 03:13:17;;;;;;;17.83;8.68;;;;;;;;;;2007583;29;20021;-87
2022/09/01 03:14:18;;;;;;;13.57;9.02;;;;;;;;;;2008412;29;20029;-87
2022/09/01 03:15:20;;;;;;;11.00;8.20;;;;;;;;;;2008163;29;20044;-87
2022/09/01 03:16:23;;;;;;;11.98;8.98;;;;;;;;;;2008169;29;20381;-87
2022/09/01 03:17:24;;;;;;;11.25;8.73;;;;;;;;;;1999979;29;20033;-87
2022/09/01 03:18:24;;;;;;;13.50;9.15;;;;;;;;;;1999870;29;20026;-88
2022/09/01 03:19:25;;;;;;;11.07;8.57;;;;;;;;;;2008159;29;20048;-87
2022/09/01 03:20:27;;;;;;;12.65;8.88;;;;;;;;;;2008183;29;20028;-87
2022/09/01 03:21:31;;;;;;;12.70;8.82;;;;;;;;;;2008264;29;20037;-87
2022/09/01 03:22:32;;;;;;;12.95;8.93;;;;;;;;;;1999786;29;20532;-87
2022/09/01 03:23:33;;;;;;;14.77;8.90;;;;;;;;;;2000094;29;20037;-87
2022/09/01 03:24:34;;;;;;;14.70;9.00;;;;;;;;;;2008149;29;20072;-87
2022/09/01 03:25:35;;;;;;;11.82;8.10;;;;;;;;;;2007631;29;20484;-86
2022/09/01 03:26:36;;;;;;;13.68;8.60;;;;;;;;;;2007347;29;20121;-87
2022/09/01 03:27:36;;;;;;;12.88;8.98;;;;;;;;;;1999797;29;20517;-86
2022/09/01 03:28:37;;;;;;;17.67;9.13;;;;;;;;;;1999873;29;20035;-86
2022/09/01 03:29:37;;;;;;;14.63;8.65;;;;;;;;;;2008141;29;20036;-86
2022/09/01 03:30:42;;;;;;;13.18;9.25;;;;;;;;;;1999856;29;20120;-87
2022/09/01 03:31:43;;;;;;;12.68;9.50;;;;;;;;;;1993010;29;20134;-87
2022/09/01 03:32:44;;;;;;;15.95;10.07;;;;;;;;;;1999935;29;20090;-88
2022/09/01 03:33:44;;;;;;;16.52;9.65;;;;;;;;;;2007611;29;20458;-88
2022/09/01 03:34:50;;;;;;;15.18;9.50;;;;;;;;;;1830543;29;10001520;-87
2022/09/01 03:35:50;;;;;;;14.05;8.70;;;;;;;;;;2000425;29;20320;-87
2022/09/01 03:36:52;;;;;;;13.23;8.77;;;;;;;;;;2007491;29;20043;-87
2022/09/01 03:37:54;;;;;;;14.65;10.23;;;;;;;;;;1999789;29;20410;-87
2022/09/01 03:38:55;;;;;;;12.75;9.13;;;;;;;;;;1992586;29;20036;-88
2022/09/01 03:39:56;;;;;;;15.30;9.18;;;;;;;;;;1992343;29;20120;-88
2022/09/01 03:41:03;;;;;;;12.63;8.98;;;;;;;;;;1999833;29;20074;-87
2022/09/01 03:42:04;;;;;;;14.40;9.30;;;;;;;;;;1655119;29;10327520;-88
2022/09/01 03:43:09;;;;;;;16.05;8.93;;;;;;;;;;1999881;29;20088;-88
2022/09/01 03:44:15;;;;;;;12.88;9.85;;;;;;;;;;2012372;29;20074;-87
2022/09/01 03:45:19;;;;;;;13.55;9.45;;;;;;;;;;2009698;29;20092;-87
2022/09/01 03:46:20;;;;;;;11.40;8.77;;;;;;;;;;2009715;29;20025;-87
2022/09/01 03:47:23;;;;;;;12.80;8.98;;;;;;;;;;2001256;29;20083;-88
2022/09/01 03:48:26;;;;;;;13.00;9.13;;;;;;;;;;2001657;29;20033;-88
2022/09/01 03:49:27;;;;;;;15.63;9.85;;;;;;;;;;2009057;29;20096;-88
2022/09/01 03:50:27;;;;;;;15.35;9.98;;;;;;;;;;2009647;29;20041;-87
2022/09/01 03:51:29;;;;;;;12.82;9.73;;;;;;;;;;2009650;29;20033;-87
2022/09/01 03:52:30;;;;;;;14.05;9.75;;;;;;;;;;2009638;29;20059;-88
2022/09/01 03:53:36;;;;;;;13.68;9.70;;;;;;;;;;2009740;29;20033;-88
2022/09/01 03:54:37;;;;;;;16.27;9.83;;;;;;;;;;1666329;29;10273543;-87
2022/09/01 03:55:38;;;;;;;15.85;9.15;;;;;;;;;;2001086;29;20282;-87
2022/09/01 03:56:40;;;;;;;13.15;9.63;;;;;;;;;;2001403;29;20404;-87
2022/09/01 03:57:41;;;;;;;13.20;9.50;;;;;;;;;;2001213;29;20025;-87
2022/09/01 03:58:46;;;;;;;13.70;10.10;;;;;;;;;;2001398;29;20054;-87
2022/09/01 03:59:46;;;;;;;16.63;10.32;;;;;;;;;;2009494;29;20036;-87
2022/09/01 04:00:54;;;;;;;13.48;9.32;;;;;;;;;;1762250;29;10255767;-87
2022/09/01 04:01:56;;;;;;;13.23;9.48;;;;;;;;;;2001553;29;20275;-87
2022/09/01 04:02:58;;;;;;;15.25;10.02;;;;;;;;;;2001729;29;20029;-88
2022/09/01 04:04:00;;;;;;;12.68;9.98;;;;;;;;;;2001211;29;20063;-88
2022/09/01 04:05:00;;;;;;;13.43;9.38;;;;;;;;;;2001406;29;20094;-88
2022/09/01 04:06:01;;;;;;;16.65;9.68;;;;;;;;;;2009522;29;20696;-88
2022/09/01 04:07:02;;;;;;;17.55;10.32;;;;;;;;;;2001324;29;20078;-87
2022/09/01 04:08:09;;;;;;;16.10;10.15;;;;;;;;;;2001184;29;20021;-87
2022/09/01 04:09:10;;;;;;;13.75;9.18;;;;;;;;;;2011395;29;20404;-88
2022/09/01 04:10:10;;;;;;;15.70;9.73;;;;;;;;;;2001318;29;20022;-88
2022/09/01 04:11:17;;;;;;;15.20;9.52;;;;;;;;;;1993681;29;20447;-88
2022/09/01 04:12:17;;;;;;;14.13;10.07;;;;;;;;;;1994266;29;20117;-88
2022/09/01 04:13:29;;;;;;;13.73;10.23;;;;;;;;;;2001178;29;20371;-88
2022/09/01 04:14:29;;;;;;;15.18;10.52;;;;;;;;;;2002632;29;20041;-88
2022/09/01 04:15:31;;;;;;;17.45;11.18;;;;;;;;;;2009430;29;20040;-88
2022/09/01 04:18:18;;;;;;;16.17;10.38;;;;;;;;;;2009801;29;20116;-88
2022/09/01 04:19:29;;;;;;;13.00;9.63;;;;;;;;;;2008724;29;20525;-88
2022/09/01 04:20:38;;;;;;;14.27;10.18;;;;;;;;;;2008966;29;20026;-88
2022/09/01 04:21:38;;;;;;;15.00;10.27;;;;;;;;;;2012075;29;20048;-88
2022/09/01 04:22:39;;;;;;;20.05;10.35;;;;;;;;;;2009417;29;20052;-88
2022/09/01 04:23:41;;;;;;;17.08;9.98;;;;;;;;;;1659241;29;10235788;-87
2022/09/01 04:24:44;;;;;;;13.38;10.18;;;;;;;;;;2001163;29;20034;-88
2022/09/01 04:25:45;;;;;;;15.57;9.93;;;;;;;;;;2001198;29;20029;-88
2022/09/01 04:26:48;;;;;;;15.60;10.00;;;;;;;;;;2001121;29;20082;-88
2022/09/01 04:27:54;;;;;;;15.98;9.82;;;;;;;;;;2001110;29;20114;-88
2022/09/01 04:28:54;;;;;;;16.00;9.45;;;;;;;;;;2004245;29;20438;-88
2022/09/01 04:29:55;;;;;;;14.27;9.20;;;;;;;;;;2001292;29;20135;-88
2022/09/01 04:30:57;;;;;;;15.00;9.85;;;;;;;;;;2001047;29;20540;-88
2022/09/01 04:32:08;;;;;;;14.90;10.35;;;;;;;;;;2009382;29;20025;-88
2022/09/01 04:33:09;;;;;;;13.52;9.38;;;;;;;;;;2001092;29;20486;-88
2022/09/01 04:34:12;;;;;;;14.05;9.05;;;;;;;;;;2001136;29;20026;-88
2022/09/01 04:35:15;;;;;;;24.00;9.52;;;;;;;;;;2000982;29;20030;-88
2022/09/01 04:36:22;;;;;;;15.00;9.25;;;;;;;;;;2001379;29;20398;-88
2022/09/01 04:37:22;;;;;;;17.30;9.20;;;;;;;;;;2000855;29;20181;-88
2022/09/01 04:38:23;;;;;;;13.98;8.65;;;;;;;;;;2001051;29;20041;-88
2022/09/01 04:39:24;;;;;;;11.55;8.63;;;;;;;;;;2000896;29;20109;-88
2022/09/01 04:40:26;;;;;;;10.90;8.50;;;;;;;;;;2000966;29;20033;-88
2022/09/01 04:41:31;;;;;;;12.93;8.80;;;;;;;;;;2000988;29;20032;-88
2022/09/01 04:42:32;;;;;;;9.68;7.95;;;;;;;;;;2008775;29;20030;-88
2022/09/01 04:43:33;;;;;;;12.63;8.32;;;;;;;;;;2009338;29;20057;-88
2022/09/01 04:44:34;;;;;;;12.43;8.30;;;;;;;;;;2009461;29;20037;-88
2022/09/01 04:45:35;;;;;;;13.13;8.10;;;;;;;;;;2009121;29;20026;-88
2022/09/01 04:46:41;;;;;;;11.77;8.15;;;;;;;;;;2000908;29;20105;-88
2022/09/01 04:47:41;;;;;;;10.15;7.25;;;;;;;;;;2004236;29;20030;-87
2022/09/01 04:48:43;;;;;;;13.23;7.88;;;;;;;;;;2009237;29;20034;-88
2022/09/01 04:49:47;;;;;;;13.15;8.52;;;;;;;;;;2009094;29;20098;-88
2022/09/01 04:50:48;;;;;;;10.57;7.45;;;;;;;;;;2009194;29;20061;-88
2022/09/01 04:51:51;;;;;;;8.95;6.97;;;;;;;;;;2009182;29;20017;-88
2022/09/01 04:52:53;;;;;;;11.50;7.60;;;;;;;;;;2000915;29;20097;-89
2022/09/01 04:53:56;;;;;;;11.52;6.90;;;;;;;;;;2001178;29;20045;-89
2022/09/01 04:54:56;;;;;;;9.48;7.57;;;;;;;;;;2008134;29;20038;-88
2022/09/01 04:56:03;;;;;;;9.60;7.45;;;;;;;;;;2009036;29;20428;-89
2022/09/01 04:57:05;;;;;;;11.27;7.28;;;;;;;;;;2000982;29;20030;-89
2022/09/01 04:58:06;;;;;;;8.57;7.32;;;;;;;;;;2000842;29;20030;-89
2022/09/01 04:59:09;;;;;;;10.10;7.20;;;;;;;;;;2000900;29;20108;-89
2022/09/01 05:00:21;;;;;;;11.27;6.93;;;;;;;;;;2000835;29;20553;-89
2022/09/01 05:01:24;;;;;;;11.80;6.63;;;;;;;;;;2005021;29;20032;-89
2022/09/01 05:02:27;;;;;;;10.32;7.25;;;;;;;;;;2009880;29;20081;-89
2022/09/01 05:03:30;;;;;;;12.18;6.68;;;;;;;;;;2000936;29;20026;-89
2022/09/01 05:04:32;;;;;;;9.05;6.60;;;;;;;;;;1993419;29;20097;-89
2022/09/01 05:05:42;;;;;;;7.97;6.97;;;;;;;;;;2000966;29;20057;-89
2022/09/01 05:06:45;;;;;;;10.00;6.90;;;;;;;;;;2008478;29;20041;-88
2022/09/01 05:07:49;;;;;;;10.07;6.97;;;;;;;;;;2008499;29;20036;-89
2022/09/01 05:08:51;;;;;;;9.07;6.68;;;;;;;;;;2008272;29;20040;-89
2022/09/01 05:09:53;;;;;;;15.85;7.10;;;;;;;;;;2000962;29;20022;-89
2022/09/01 05:10:55;;;;;;;11.15;6.28;;;;;;;;;;2001309;29;20026;-89
2022/09/01 05:12:00;;;;;;;6.95;6.20;;;;;;;;;;2009199;29;20029;-89
2022/09/01 05:13:00;;;;;;;9.95;6.60;;;;;;;;;;2000717;29;20041;-90
2022/09/01 05:14:03;;;;;;;7.45;5.85;;;;;;;;;;2000904;29;20152;-89
2022/09/01 05:15:08;;;;;;;11.95;6.40;;;;;;;;;;2009066;29;20414;-90
2022/09/01 05:16:11;;;;;;;10.15;6.45;;;;;;;;;;2000897;29;20030;-89
2022/09/01 05:17:16;;;;;;;8.90;6.40;;;;;;;;;;2001038;29;20101;-89
2022/09/01 05:18:23;;;;;;;7.75;6.50;;;;;;;;;;2000115;29;20047;-89
2022/09/01 05:19:28;;;;;;;10.63;7.07;;;;;;;;;;2002643;29;20402;-90
2022/09/01 05:20:29;;;;;;;10.02;7.40;;;;;;;;;;2008491;29;20037;-89
2022/09/01 05:21:29;;;;;;;9.93;6.35;;;;;;;;;;2000302;29;20164;-89
2022/09/01 05:22:30;;;;;;;8.07;6.28;;;;;;;;;;2000296;29;20034;-89
2022/09/01 05:23:31;;;;;;;9.38;6.90;;;;;;;;;;2007672;29;20038;-89
2022/09/01 05:24:33;;;;;;;9.85;7.15;;;;;;;;;;2007982;29;20041;-89
2022/09/01 05:25:42;;;;;;;9.37;6.30;;;;;;;;;;1658886;29;10239219;-90
2022/09/01 05:26:45;;;;;;;8.35;6.75;;;;;;;;;;2002030;29;20045;-88
2022/09/01 05:27:48;;;;;;;10.57;7.18;;;;;;;;;;2008981;29;20037;-89
2022/09/01 05:28:53;;;;;;;16.10;7.28;;;;;;;;;;2000930;29;20058;-89
2022/09/01 05:29:53;;;;;;;9.52;6.95;;;;;;;;;;2001309;29;20045;-89
2022/09/01 05:30:54;;;;;;;10.82;7.13;;;;;;;;;;2000700;29;20037;-89
2022/09/01 05:31:55;;;;;;;7.85;6.60;;;;;;;;;;2000701;29;20540;-88
2022/09/01 05:32:56;;;;;;;7.93;7.05;;;;;;;;;;2000595;29;20053;-88
2022/09/01 05:33:57;;;;;;;10.85;7.45;;;;;;;;;;2000773;29;20034;-88
2022/09/01 05:34:58;;;;;;;11.55;7.03;;;;;;;;;;2008979;29;20033;-88
2022/09/01 05:36:00;;;;;;;9.93;7.13;;;;;;;;;;2000576;29;20505;-88
2022/09/01 05:37:01;;;;;;;9.50;7.47;;;;;;;;;;2000582;29;20044;-88
2022/09/01 05:38:02;;;;;;;10.55;6.75;;;;;;;;;;2000596;29;20102;-89
2022/09/01 05:39:04;;;;;;;6.80;6.10;;;;;;;;;;2009132;29;20101;-89
2022/09/01 05:40:08;;;;;;;8.68;6.30;;;;;;;;;;2008058;29;20029;-89
2022/09/01 05:41:13;;;;;;;7.70;5.85;;;;;;;;;;2008397;29;20082;-89
2022/09/01 05:42:14;;;;;;;7.50;6.72;;;;;;;;;;2000659;29;20113;-88
2022/09/01 05:43:16;;;;;;;12.38;6.10;;;;;;;;;;2000612;29;20029;-89
2022/09/01 05:44:17;;;;;;;8.07;6.65;;;;;;;;;;2008989;29;20034;-89
2022/09/01 05:45:22;;;;;;;8.43;5.95;;;;;;;;;;2008970;29;20029;-89
2022/09/01 05:46:26;;;;;;;13.15;6.55;;;;;;;;;;2008920;29;20041;-89
2022/09/01 05:47:27;;;;;;;7.60;5.72;;;;;;;;;;2008900;29;20053;-89
2022/09/01 05:48:30;;;;;;;10.07;5.70;;;;;;;;;;2008975;29;20038;-88
2022/09/01 05:49:31;;;;;;;7.43;5.75;;;;;;;;;;2000551;29;20062;-90
2022/09/01 05:50:32;;;;;;;6.28;5.68;;;;;;;;;;1993052;29;20034;-89
2022/09/01 05:51:35;;;;;;;7.13;5.85;;;;;;;;;;2000684;29;20042;-89
2022/09/01 05:52:37;;;;;;;8.00;6.20;;;;;;;;;;2000575;29;20045;-89
2022/09/01 05:53:37;;;;;;;8.02;5.70;;;;;;;;;;2000597;29;20030;-88
2022/09/01 05:54:39;;;;;;;8.23;5.75;;;;;;;;;;2000479;29;20457;-88
2022/09/01 05:55:44;;;;;;;7.50;6.45;;;;;;;;;;2000561;29;20473;-90
2022/09/01 05:56:45;;;;;;;7.18;5.95;;;;;;;;;;2008882;29;20044;-89
2022/09/01 05:57:46;;;;;;;10.18;5.60;;;;;;;;;;2008782;29;20066;-89
2022/09/01 05:58:47;;;;;;;6.30;5.70;;;;;;;;;;2008886;29;20105;-89
2022/09/01 05:59:52;;;;;;;6.40;5.30;;;;;;;;;;2008925;29;20037;-89
2022/09/01 06:00:57;;;;;;;6.13;5.30;;;;;;;;;;2000406;29;20054;-89
2022/09/01 06:01:59;;;;;;;8.15;5.28;;;;;;;;;;1993517;29;20107;-89
2022/09/01 06:03:03;;;;;;;6.22;5.05;;;;;;;;;;2000499;29;20030;-89
2022/09/01 06:04:05;;;;;;;6.63;4.90;;;;;;;;;;2008094;29;20126;-89
2022/09/01 06:05:06;;;;;;;7.05;5.40;;;;;;;;;;2008824;29;20112;-89
2022/09/01 06:06:11;;;;;;;5.78;5.00;;;;;;;;;;2008869;29;20249;-89
2022/09/01 06:07:13;;;;;;;6.70;5.40;;;;;;;;;;1999452;29;20117;-89
2022/09/01 06:08:14;;;;;;;6.90;4.70;;;;;;;;;;1993155;29;20034;-90
2022/09/01 06:09:22;;;;;;;7.68;5.75;;;;;;;;;;1654951;29;10349325;-89
2022/09/01 06:10:23;;;;;;;6.63;5.18;;;;;;;;;;2008821;29;20774;-89
2022/09/01 06:11:25;;;;;;;7.65;5.55;;;;;;;;;;2008691;29;20128;-90
2022/09/01 06:12:27;;;;;;;6.82;5.07;;;;;;;;;;2000468;29;20410;-90
2022/09/01 06:13:28;;;;;;;7.65;5.32;;;;;;;;;;2000774;29;20033;-90
2022/09/01 06:14:29;;;;;;;7.72;4.85;;;;;;;;;;2008778;29;20414;-90